Time;durP1;ratioP1;P1;durP2;ratioP2;P2;SDS_P1;SDS_P2;PMS_P1;PMS_P2;Temp;Humidity;BMP_temperature;BMP_pressure;BME280_temperature;BME280_humidity;BME280_pressure;Samples;Min_cycle;Max_cycle;Signal;HPM_P1;HPM_P2
2021/12/08 00:02:21;;;;;;;;;3.00;2.00;;;;;16.88;73.72;99118.97;4913032;29;8958;-78
2021/12/08 00:05:02;;;;;;;;;1.33;1.33;;;;;16.91;74.16;99137.34;4917353;29;9555;-78
2021/12/08 00:07:27;;;;;;;;;2.25;2.25;;;;;16.89;73.92;99131.25;4917101;29;8791;-78
2021/12/08 00:10:13;;;;;;;;;1.00;1.00;;;;;16.88;74.28;99134.81;4916361;29;8816;-78
2021/12/08 00:15:14;;;;;;;;;1.25;1.25;;;;;16.90;74.61;99141.78;5277453;23;8854;-78
2021/12/08 00:17:40;;;;;;;;;1.50;1.50;;;;;16.86;73.42;99128.72;4935686;29;8856;-78
2021/12/08 00:20:06;;;;;;;;;1.00;1.00;;;;;16.90;73.72;99139.13;4936448;29;8814;-78
2021/12/08 00:22:31;;;;;;;;;1.75;1.75;;;;;16.91;73.45;99129.44;4937593;29;8809;-78
2021/12/08 00:24:57;;;;;;;;;1.00;1.00;;;;;16.81;73.52;99097.25;4940903;29;8826;-78
2021/12/08 00:27:22;;;;;;;;;1.00;1.00;;;;;16.91;74.00;99118.88;4941970;29;8839;-78
2021/12/08 00:29:53;;;;;;;;;2.00;2.00;;;;;16.89;73.73;99116.31;4937683;29;8872;-78
2021/12/08 00:32:21;;;;;;;;;1.25;1.25;;;;;16.88;73.78;99114.59;4935759;29;8802;-78
2021/12/08 00:34:47;;;;;;;;;2.00;2.00;;;;;16.85;73.47;99111.19;4936057;29;8782;-78
2021/12/08 00:37:14;;;;;;;;;2.00;2.00;;;;;16.88;74.24;99114.59;4936067;29;8834;-78
2021/12/08 00:39:40;;;;;;;;;2.75;2.75;;;;;16.93;73.88;99114.44;4938335;29;8790;-78
2021/12/08 00:42:08;;;;;;;;;3.00;2.00;;;;;16.93;73.34;99117.06;4946054;29;8865;-78
2021/12/08 00:47:09;;;;;;;;;2.00;2.00;;;;;16.91;73.71;99118.88;5978167;23;8765;-78
2021/12/08 00:49:34;;;;;;;;;1.33;1.33;;;;;16.78;73.30;99097.34;4917053;29;8876;-79
2021/12/08 00:51:59;;;;;;;;;1.00;1.00;;;;;16.91;73.80;99114.47;4916069;29;8801;-79
2021/12/08 00:54:25;;;;;;;;;1.00;1.00;;;;;16.72;73.30;99091.41;4916965;29;8781;-79
2021/12/08 00:56:50;;;;;;;;;1.00;1.00;;;;;16.78;73.45;99110.53;4899852;29;8795;-77
2021/12/08 00:59:18;;;;;;;;;2.00;2.00;;;;;16.94;73.42;99134.63;4897152;29;8796;-79
2021/12/08 01:01:43;;;;;;;;;2.00;2.00;;;;;16.87;73.00;99128.66;4896731;29;9483;-79
2021/12/08 01:04:09;;;;;;;;;3.00;3.00;;;;;16.99;72.44;99139.72;4898090;29;8806;-80
2021/12/08 01:22:07;;;;;;;;;1.75;1.75;;;;;16.96;72.93;99171.47;4913627;29;8870;-78
2021/12/08 01:24:32;;;;;;;;;2.00;2.00;;;;;17.00;73.49;99173.09;4917265;29;8815;-78
2021/12/08 01:26:58;;;;;;;;;3.00;2.00;;;;;17.00;73.55;99178.38;4916238;29;8858;-78
2021/12/08 01:29:23;;;;;;;;;3.00;2.00;;;;;16.99;74.14;99187.19;4915388;29;8926;-78
2021/12/08 01:31:49;;;;;;;;;1.00;1.00;;;;;16.94;73.62;99183.84;4915809;29;8799;-79
2021/12/08 01:34:14;;;;;;;;;2.00;1.67;;;;;17.00;73.59;99184.50;4915262;29;8795;-78
2021/12/08 01:36:43;;;;;;;;;2.00;2.00;;;;;17.00;73.35;99188.91;4915576;29;8823;-79
2021/12/08 01:46:54;;;;;;;;;1.00;1.00;;;;;16.99;73.34;99181.91;5244122;23;8880;-77
2021/12/08 01:49:20;;;;;;;;;2.00;2.00;;;;;16.98;73.50;99191.63;4895894;29;8806;-77
2021/12/08 01:51:46;;;;;;;;;2.00;2.00;;;;;17.00;73.41;99194.19;4896861;29;8801;-80
2021/12/08 01:54:12;;;;;;;;;1.00;1.00;;;;;17.00;72.91;99184.50;4896980;29;8801;-79
2021/12/08 01:56:37;;;;;;;;;2.00;2.00;;;;;16.80;73.26;99161.41;4896134;29;8829;-79
2021/12/08 01:59:06;;;;;;;;;1.00;1.00;;;;;16.96;72.66;99190.78;4896608;29;8794;-79
2021/12/08 02:01:34;;;;;;;;;1.50;1.50;;;;;17.01;72.86;99198.56;5013559;23;8935;-79
2021/12/08 02:04:06;;;;;;;;;2.00;2.00;;;;;16.94;72.18;99191.75;4933486;29;9716;-79
2021/12/08 02:06:35;;;;;;;;;2.00;2.00;;;;;17.03;72.61;99202.00;4934566;29;8928;-79
2021/12/08 02:09:04;;;;;;;;;2.00;2.00;;;;;17.03;73.23;99207.28;4933522;29;9587;-79
2021/12/08 02:11:30;;;;;;;;;1.75;1.75;;;;;16.98;73.35;99191.63;4934473;29;8959;-79
2021/12/08 02:14:00;;;;;;;;;3.00;3.00;;;;;17.01;72.82;99203.84;4933577;29;8911;-80
2021/12/08 02:16:27;;;;;;;;;2.25;1.50;;;;;16.81;72.93;99184.22;4933547;29;8825;-79
2021/12/08 02:18:53;;;;;;;;;1.75;1.75;;;;;17.03;73.37;99220.47;4934199;29;8805;-79
2021/12/08 02:21:29;;;;;;;;;2.67;2.67;;;;;17.03;73.40;99215.19;4934065;29;8805;-80
2021/12/08 02:23:58;;;;;;;;;2.00;2.00;;;;;17.01;73.14;99217.03;4933539;29;8785;-80
2021/12/08 02:26:24;;;;;;;;;2.00;2.00;;;;;16.97;72.53;99216.25;4934147;29;8805;-77
2021/12/08 02:28:51;;;;;;;;;1.75;1.75;;;;;16.96;73.14;99221.56;4933880;29;8808;-77
2021/12/08 02:31:25;;;;;;;;;2.75;2.75;;;;;17.03;72.13;99225.72;4933362;29;9006;-79
2021/12/08 02:50:39;;;;;;;;;2.00;2.00;;;;;16.97;72.30;99203.06;4925346;29;8821;-79
2021/12/08 02:53:06;;;;;;;;;2.75;2.00;;;;;17.05;73.14;99208.09;4933233;29;8801;-79
2021/12/08 02:55:32;;;;;;;;;2.50;1.75;;;;;17.04;73.42;99209.88;4933819;29;8793;-79
2021/12/08 02:58:00;;;;;;;;;2.00;2.00;;;;;17.03;71.80;99213.41;4933469;29;8843;-78
2021/12/08 03:00:27;;;;;;;;;2.00;2.00;;;;;17.01;73.25;99217.03;4932919;29;8817;-78
2021/12/08 03:02:57;;;;;;;;;1.00;1.00;;;;;17.05;72.50;99224.78;4933558;29;8805;-79
2021/12/08 03:05:23;;;;;;;;;2.00;2.00;;;;;16.96;72.87;99203.97;4932885;29;8924;-79
2021/12/08 03:07:48;;;;;;;;;1.50;1.00;;;;;17.06;72.55;99220.38;4933638;29;8813;-79
2021/12/08 03:10:17;;;;;;;;;2.00;2.00;;;;;16.99;73.26;99218.81;4933811;29;9541;-78
2021/12/08 03:12:43;;;;;;;;;1.00;1.00;;;;;17.04;72.93;99240.66;4932817;29;8815;-81
2021/12/08 03:15:10;;;;;;;;;2.00;2.00;;;;;17.01;72.46;99223.16;4933863;29;8790;-81
2021/12/08 03:17:35;;;;;;;;;1.75;1.00;;;;;16.99;72.97;99240.78;4927139;23;9001;-80
2021/12/08 03:20:05;;;;;;;;;1.00;1.00;;;;;17.05;73.17;99245.88;4914010;29;8898;-80
2021/12/08 03:22:31;;;;;;;;;2.75;2.50;;;;;17.01;71.63;99240.75;4914991;29;8782;-81
2021/12/08 03:25:00;;;;;;;;;2.75;2.00;;;;;17.04;72.66;99230.97;4915640;29;9579;-81
2021/12/08 03:27:32;;;;;;;;;1.50;1.50;;;;;17.06;73.22;99239.69;4917709;29;8889;-77
2021/12/08 03:30:10;;;;;;;;;2.25;2.25;;;;;17.04;72.14;99235.38;4918300;29;8803;-78
2021/12/08 03:32:38;;;;;;;;;2.00;1.75;;;;;16.96;72.64;99232.97;4918392;29;8805;-78
2021/12/08 03:35:06;;;;;;;;;1.25;1.25;;;;;17.05;72.64;99247.66;4917629;29;8810;-78
2021/12/08 03:37:36;;;;;;;;;2.00;1.00;;;;;16.98;72.65;99243.47;4918591;29;8838;-78
2021/12/08 03:40:08;;;;;;;;;1.00;1.00;;;;;17.03;72.13;99241.56;4919254;29;8791;-78
2021/12/08 03:42:37;;;;;;;;;1.25;1.25;;;;;17.04;72.77;99238.00;4920371;29;8776;-78
2021/12/08 03:45:10;;;;;;;;;2.25;2.25;;;;;17.06;73.22;99238.84;4918328;29;8790;-78
2021/12/08 03:47:39;;;;;;;;;1.25;1.25;;;;;17.02;72.55;99242.47;4917574;29;8811;-78
2021/12/08 03:50:07;;;;;;;;;1.00;1.00;;;;;17.01;72.51;99251.28;4918722;29;8783;-78
2021/12/08 03:52:33;;;;;;;;;1.75;1.75;;;;;17.06;73.07;99262.59;4918850;29;8796;-78
2021/12/08 03:54:58;;;;;;;;;1.00;1.00;;;;;16.98;72.95;99260.16;4925346;29;9566;-78
2021/12/08 03:57:24;;;;;;;;;1.00;1.00;;;;;17.06;72.74;99273.97;4923449;29;8807;-78
2021/12/08 03:59:49;;;;;;;;;0.00;0.00;;;;;16.99;73.02;99271.56;4918783;29;8780;-77
2021/12/08 04:02:15;;;;;;;;;1.00;1.00;;;;;17.00;73.06;99278.56;4917177;29;8814;-79
2021/12/08 04:04:42;;;;;;;;;1.33;1.33;;;;;17.04;73.12;99281.06;4917289;29;8817;-79
2021/12/08 04:07:08;;;;;;;;;2.25;2.00;;;;;17.03;72.07;99275.81;4917707;29;8791;-79
2021/12/08 04:09:39;;;;;;;;;2.00;2.00;;;;;17.05;72.67;99274.91;4973577;23;8873;-78
2021/12/08 04:12:06;;;;;;;;;1.00;1.00;;;;;17.06;73.06;99283.69;4910635;23;8996;-79
2021/12/08 04:14:37;;;;;;;;;2.00;2.00;;;;;17.04;72.57;99277.56;4898726;29;8797;-79
2021/12/08 04:17:58;;;;;;;;;1.25;1.25;;;;;16.90;72.64;99248.97;4920182;23;8855;-79
2021/12/08 04:21:08;;;;;;;;;2.00;2.00;;;;;16.39;72.78;99178.41;4877529;29;8811;-79
2021/12/08 04:23:47;;;;;;;;;1.50;1.25;;;;;16.55;73.08;99183.22;4876860;29;8807;-79
2021/12/08 04:26:32;;;;;;;;;1.25;1.25;;;;;16.50;73.42;99187.75;4911563;29;9556;-79
2021/12/08 04:29:18;;;;;;;;;2.00;2.00;;;;;16.46;73.63;99179.06;4917213;29;8866;-78
2021/12/08 04:31:47;;;;;;;;;1.75;1.75;;;;;17.04;72.19;99283.72;4916561;29;8799;-78
2021/12/08 04:34:19;;;;;;;;;1.25;1.25;;;;;17.05;72.35;99288.09;4917104;29;8819;-78
2021/12/08 04:43:49;;;;;;;;;1.00;1.00;;;;;16.71;72.67;99251.28;4895521;29;8793;-79
2021/12/08 05:09:49;;;;;;;;;3.25;1.75;;;;;17.00;72.66;99307.56;4916045;29;8779;-79
2021/12/08 05:12:46;;;;;;;;;1.75;1.75;;;;;16.70;73.25;99259.22;4914703;29;8819;-79
2021/12/08 05:15:54;;;;;;;;;0.75;0.75;;;;;17.05;72.99;99325.00;4916014;29;8795;-80
2021/12/08 05:18:48;;;;;;;;;2.00;2.00;;;;;16.95;72.10;99317.38;5092028;23;8889;-78
2021/12/08 05:22:10;;;;;;;;;1.00;1.00;;;;;16.89;73.42;99311.38;4897205;29;8929;-78
2021/12/08 05:24:58;;;;;;;;;1.00;1.00;;;;;16.51;71.74;99248.31;4866562;29;8802;-78
2021/12/08 05:27:46;;;;;;;;;1.00;1.00;;;;;16.83;73.06;99289.63;4896643;29;8825;-79
2021/12/08 05:30:23;;;;;;;;;2.50;2.00;;;;;16.47;73.16;99230.88;4897087;29;8840;-80
2021/12/08 05:33:16;;;;;;;;;1.00;1.00;;;;;16.74;72.18;99281.97;4896807;29;8810;-80
2021/12/08 05:46:49;;;;;;;;;1.25;1.00;;;;;16.81;71.88;99301.94;4910847;23;9620;-80
2021/12/08 06:05:54;;;;;;;;;1.00;1.00;;;;;16.97;72.67;99363.03;4930345;23;8884;-79
2021/12/08 06:08:20;;;;;;;;;2.50;2.00;;;;;16.87;72.57;99351.88;5036746;23;8979;-78
2021/12/08 06:11:05;;;;;;;;;3.33;3.33;;;;;16.55;73.53;99297.38;4934172;29;8809;-79
2021/12/08 06:13:35;;;;;;;;;4.67;2.67;;;;;16.79;73.29;99304.66;4934102;29;8809;-79
2021/12/08 06:16:11;;;;;;;;;4.25;4.25;;;;;16.89;73.61;99328.97;4933088;29;8883;-78
2021/12/08 06:19:21;;;;;;;;;6.25;5.25;;;;;16.76;74.49;99303.84;4934194;29;8801;-80
2021/12/08 06:21:52;;;;;;;;;7.00;4.00;;;;;17.26;73.73;99379.75;4893828;29;8814;-78
2021/12/08 06:24:38;;;;;;;;;7.67;5.00;;;;;17.01;75.07;99354.13;4893337;29;8813;-80
2021/12/08 06:27:19;;;;;;;;;6.00;5.33;;;;;17.06;75.18;99342.53;4893860;29;8964;-78
2021/12/08 06:29:59;;;;;;;;;6.50;4.50;;;;;17.22;75.17;99369.31;4894608;29;8976;-79
2021/12/08 06:32:40;;;;;;;;;6.67;4.67;;;;;17.24;74.91;99373.66;4894211;29;8821;-78
2021/12/08 06:35:16;;;;;;;;;6.67;4.67;;;;;17.25;75.29;99371.88;4894124;29;9678;-78
2021/12/08 06:37:54;;;;;;;;;6.00;5.25;;;;;17.24;75.23;99371.03;4896675;29;9082;-76
2021/12/08 06:40:33;;;;;;;;;6.00;5.00;;;;;17.04;75.37;99354.03;4934197;29;8789;-77
2021/12/08 06:43:20;;;;;;;;;5.00;5.00;;;;;17.00;75.06;99333.94;4933359;29;8913;-76
2021/12/08 06:45:53;;;;;;;;;6.00;5.25;;;;;17.24;74.98;99365.75;4933838;29;8957;-76
2021/12/08 06:48:39;;;;;;;;;3.00;2.25;;;;;17.45;75.22;99405.59;4934045;29;8793;-76
2021/12/08 06:51:13;;;;;;;;;4.75;3.50;;;;;17.39;75.25;99393.44;4933727;29;8801;-76
2021/12/08 06:53:42;;;;;;;;;6.00;6.00;;;;;17.35;74.93;99392.69;4942250;29;8904;-76
2021/12/08 06:56:19;;;;;;;;;3.50;3.50;;;;;17.37;75.45;99406.69;4938414;29;8900;-76
2021/12/08 06:58:48;;;;;;;;;5.75;4.75;;;;;17.37;75.00;99411.09;4918932;29;8783;-76
2021/12/08 07:01:36;;;;;;;;;4.25;3.75;;;;;17.37;75.12;99416.34;4919208;29;8830;-76
2021/12/08 07:04:34;;;;;;;;;6.00;5.00;;;;;17.40;75.56;99411.84;4918573;29;8819;-76
2021/12/08 07:07:09;;;;;;;;;4.00;4.00;;;;;17.39;75.78;99425.97;4926625;23;8921;-75
2021/12/08 07:09:38;;;;;;;;;4.00;4.00;;;;;17.38;75.74;99428.66;4938138;29;8846;-76
2021/12/08 07:12:12;;;;;;;;;2.50;2.00;;;;;17.37;75.08;99427.78;4949736;23;8850;-76
2021/12/08 07:14:40;;;;;;;;;3.00;2.25;;;;;17.37;75.70;99421.63;4940247;29;8781;-76
2021/12/08 07:17:10;;;;;;;;;3.25;3.00;;;;;17.34;74.94;99424.38;4937847;29;8849;-76
2021/12/08 07:19:52;;;;;;;;;5.00;2.50;;;;;17.34;75.63;99422.59;4942834;23;8868;-76
2021/12/08 07:22:29;;;;;;;;;3.00;3.00;;;;;17.34;75.18;99419.09;4947232;23;8847;-76
2021/12/08 07:24:57;;;;;;;;;3.33;2.00;;;;;17.27;74.57;99396.44;4956063;28;8912;-77
2021/12/08 07:27:33;;;;;;;;;3.50;3.25;;;;;17.19;75.18;99399.28;4955934;28;9046;-77
2021/12/08 07:30:01;;;;;;;;;2.67;2.67;;;;;17.24;74.50;99415.00;4956097;28;8787;-76
2021/12/08 07:32:33;;;;;;;;;3.75;3.00;;;;;17.26;74.35;99427.22;4935747;23;8966;-77
2021/12/08 07:35:03;;;;;;;;;3.25;3.25;;;;;17.32;75.23;99434.94;4917499;29;8821;-76
2021/12/08 07:37:31;;;;;;;;;3.75;2.25;;;;;17.31;74.64;99446.44;4917515;29;8935;-77
2021/12/08 07:40:05;;;;;;;;;4.50;4.50;;;;;17.32;75.29;99447.31;4917030;29;8793;-76
2021/12/08 07:42:39;;;;;;;;;3.33;2.67;;;;;17.29;74.13;99450.88;4917803;29;8792;-77
2021/12/08 07:45:11;;;;;;;;;1.75;1.75;;;;;17.25;74.63;99443.94;4991138;23;8973;-76
2021/12/08 07:47:38;;;;;;;;;3.00;3.00;;;;;17.27;75.21;99451.84;4936272;29;8800;-76
2021/12/08 07:50:11;;;;;;;;;3.00;2.00;;;;;17.25;74.47;99459.78;4936422;29;8970;-77
2021/12/08 07:52:40;;;;;;;;;2.25;2.25;;;;;17.26;74.67;99456.25;4937870;29;9537;-77
2021/12/08 07:55:16;;;;;;;;;3.25;2.75;;;;;17.26;74.73;99450.97;4933637;29;8808;-77
2021/12/08 07:57:42;;;;;;;;;2.00;2.00;;;;;17.23;74.51;99444.91;4917292;29;8838;-76
2021/12/08 08:00:14;;;;;;;;;2.00;2.00;;;;;17.22;74.49;99440.53;4917691;29;8787;-76
2021/12/08 08:02:40;;;;;;;;;4.25;3.25;;;;;17.14;74.54;99431.97;4916692;29;8895;-77
2021/12/08 08:05:09;;;;;;;;;2.00;2.00;;;;;17.24;74.53;99449.28;4917836;29;8792;-77
2021/12/08 08:07:35;;;;;;;;;4.25;3.00;;;;;17.26;74.29;99439.53;4919115;29;8792;-76
2021/12/08 08:10:02;;;;;;;;;3.75;3.75;;;;;17.25;73.96;99448.34;4916536;29;8771;-77
2021/12/08 08:12:32;;;;;;;;;1.25;1.00;;;;;17.25;74.53;99443.06;4917251;29;8857;-77
2021/12/08 08:15:01;;;;;;;;;3.00;3.00;;;;;17.25;74.13;99449.22;4916184;29;9646;-77
2021/12/08 08:17:36;;;;;;;;;2.25;2.25;;;;;17.25;74.30;99449.22;4917553;29;8815;-77
2021/12/08 08:20:10;;;;;;;;;2.00;2.00;;;;;17.23;73.88;99448.41;4917556;29;8799;-76
2021/12/08 08:22:35;;;;;;;;;2.00;2.00;;;;;17.03;74.20;99408.53;4922911;23;8847;-76
2021/12/08 08:25:05;;;;;;;;;2.33;2.33;;;;;16.99;73.86;99398.09;4916745;29;9661;-76
2021/12/08 08:27:31;;;;;;;;;1.75;1.75;;;;;17.21;72.55;99449.34;4916752;29;8914;-76
2021/12/08 08:30:08;;;;;;;;;3.00;3.00;;;;;17.06;73.63;99426.91;4915937;29;8974;-76
2021/12/08 08:32:52;;;;;;;;;2.00;2.00;;;;;17.05;74.46;99427.84;4917321;29;8803;-77
2021/12/08 08:35:26;;;;;;;;;2.00;2.00;;;;;17.25;74.04;99467.69;4917159;29;8862;-76
2021/12/08 08:40:38;;;;;;;;;3.00;2.33;;;;;17.20;74.60;99458.19;4930969;23;8882;-76
2021/12/08 08:43:05;;;;;;;;;2.25;1.75;;;;;17.23;73.31;99472.16;4915490;29;8948;-76
2021/12/08 08:45:40;;;;;;;;;3.25;3.25;;;;;17.23;73.56;99480.06;4916669;29;8821;-77
2021/12/08 08:48:15;;;;;;;;;2.00;2.00;;;;;17.20;74.02;99464.34;4924288;23;8798;-76
2021/12/08 08:50:47;;;;;;;;;3.00;3.00;;;;;17.19;73.52;99472.28;4914458;29;8799;-77
2021/12/08 08:53:14;;;;;;;;;2.00;2.00;;;;;17.23;73.60;99472.16;4978496;23;9015;-76
2021/12/08 08:55:52;;;;;;;;;1.00;1.00;;;;;17.16;74.20;99467.97;4927059;29;8885;-76
2021/12/08 08:58:21;;;;;;;;;1.67;1.67;;;;;17.22;73.75;99472.19;4915820;29;8869;-76
2021/12/08 09:01:00;;;;;;;;;3.00;2.00;;;;;17.20;73.66;99466.09;4916206;29;8900;-77
2021/12/08 09:03:28;;;;;;;;;1.00;1.00;;;;;17.11;74.04;99463.69;4916340;29;8791;-77
2021/12/08 09:05:58;;;;;;;;;4.25;3.00;;;;;17.22;74.55;99486.25;4915591;29;8929;-76
2021/12/08 09:08:26;;;;;;;;;2.00;2.00;;;;;17.22;73.78;99490.66;4916565;29;8833;-76
2021/12/08 09:11:12;;;;;;;;;2.00;2.00;;;;;17.22;74.06;99493.28;4916196;29;8787;-77
2021/12/08 09:13:46;;;;;;;;;2.00;2.00;;;;;17.21;74.48;99492.41;4916168;29;8822;-77
2021/12/08 09:16:17;;;;;;;;;2.00;2.00;;;;;17.10;73.46;99476.00;4916449;29;8810;-76
2021/12/08 09:18:59;;;;;;;;;1.75;1.75;;;;;17.22;73.88;99493.28;4915437;29;8819;-77
2021/12/08 09:21:31;;;;;;;;;2.00;1.00;;;;;17.21;73.56;99497.69;4916248;29;8806;-76
2021/12/08 09:24:15;;;;;;;;;1.25;1.25;;;;;17.10;74.48;99480.41;4915836;29;8839;-77
2021/12/08 09:26:51;;;;;;;;;2.25;2.25;;;;;17.17;74.07;99496.03;4915438;29;8799;-77
2021/12/08 09:29:22;;;;;;;;;2.25;2.00;;;;;17.21;72.73;99496.81;4916351;29;8799;-77
2021/12/08 09:32:01;;;;;;;;;2.00;1.00;;;;;17.18;73.35;99475.81;4915758;29;8827;-77
2021/12/08 09:34:32;;;;;;;;;2.75;2.00;;;;;17.22;72.72;99488.88;4915693;29;8811;-76
2021/12/08 09:37:06;;;;;;;;;3.50;2.00;;;;;17.20;73.26;99492.47;4915829;29;8948;-77
2021/12/08 09:39:39;;;;;;;;;1.00;1.00;;;;;17.26;73.14;99506.34;4914799;29;8795;-77
2021/12/08 09:42:12;;;;;;;;;2.00;0.75;;;;;17.24;73.30;99502.03;4915463;29;8870;-77
2021/12/08 09:44:42;;;;;;;;;1.25;1.25;;;;;17.23;73.50;99501.16;4915376;29;8829;-77
2021/12/08 09:47:08;;;;;;;;;2.25;1.25;;;;;17.23;73.15;99514.34;4915201;29;8843;-77
2021/12/08 09:49:35;;;;;;;;;2.25;2.25;;;;;17.23;72.72;99511.72;4915653;29;8819;-76
2021/12/08 09:52:05;;;;;;;;;2.00;2.00;;;;;17.23;74.00;99509.09;4915645;29;8818;-76
2021/12/08 09:54:30;;;;;;;;;2.25;2.00;;;;;17.21;73.61;99517.91;4914893;29;8830;-76
2021/12/08 09:56:56;;;;;;;;;2.00;2.00;;;;;17.23;72.67;99532.81;4915123;29;8854;-77
2021/12/08 09:59:22;;;;;;;;;2.00;2.00;;;;;17.24;73.38;99541.59;4915458;29;8794;-77
2021/12/08 10:01:52;;;;;;;;;1.50;1.50;;;;;17.18;73.16;99536.47;4914588;29;8807;-77
2021/12/08 10:04:19;;;;;;;;;1.00;0.50;;;;;17.20;72.77;99547.88;4915267;29;8933;-77
2021/12/08 10:06:49;;;;;;;;;1.25;1.25;;;;;17.19;73.35;99552.28;4915181;29;9495;-77
2021/12/08 10:09:19;;;;;;;;;2.25;1.25;;;;;17.15;72.18;99544.47;4923393;29;8791;-77
2021/12/08 10:16:55;;;;;;;;;1.00;1.00;;;;;17.18;73.13;99560.22;5731083;23;8883;-77
2021/12/08 10:19:22;;;;;;;;;1.67;1.67;;;;;17.14;72.83;99559.41;4934662;29;8819;-77
2021/12/08 10:21:47;;;;;;;;;1.25;1.25;;;;;17.21;72.44;99554.84;4933513;29;8796;-76
2021/12/08 10:24:19;;;;;;;;;1.33;1.33;;;;;17.21;73.42;99563.63;4938178;29;8907;-76
2021/12/08 10:26:46;;;;;;;;;2.00;2.00;;;;;17.18;73.44;99560.22;4939444;29;8831;-77
2021/12/08 10:29:12;;;;;;;;;1.00;1.00;;;;;17.03;73.84;99534.22;4935919;29;8792;-77
2021/12/08 10:31:47;;;;;;;;;2.33;2.33;;;;;17.09;73.47;99534.97;4934488;29;8927;-77
2021/12/08 10:36:49;;;;;;;;;3.00;3.00;;;;;17.24;73.12;99562.72;4932845;29;8796;-77
2021/12/08 10:39:33;;;;;;;;;2.75;2.00;;;;;17.26;73.14;99560.88;4934180;29;8807;-77
2021/12/08 10:41:58;;;;;;;;;2.00;2.00;;;;;17.26;72.73;99559.13;4933514;29;8827;-77
2021/12/08 10:44:40;;;;;;;;;2.33;2.00;;;;;17.09;71.52;99542.00;4933058;29;8820;-77
2021/12/08 10:47:08;;;;;;;;;3.00;2.75;;;;;17.22;72.81;99561.88;4933406;29;9544;-77
2021/12/08 10:54:50;;;;;;;;;2.00;1.00;;;;;17.25;72.05;99554.72;4932688;29;8899;-77
2021/12/08 10:57:27;;;;;;;;;2.00;2.00;;;;;17.24;73.10;99563.56;5089471;23;8843;-78
2021/12/08 11:00:33;;;;;;;;;1.75;1.50;;;;;17.25;73.28;99565.28;4933743;29;8867;-78
2021/12/08 11:03:07;;;;;;;;;1.00;1.00;;;;;17.25;72.92;99560.00;4933768;29;8800;-76
2021/12/08 11:05:37;;;;;;;;;2.25;2.25;;;;;17.30;72.14;99562.53;4932949;29;8812;-76
2021/12/08 11:08:11;;;;;;;;;2.00;2.00;;;;;17.31;71.43;99569.56;4933555;29;8822;-76
2021/12/08 11:10:51;;;;;;;;;2.00;2.00;;;;;17.33;72.84;99563.31;4933590;29;8908;-76
2021/12/08 11:13:24;;;;;;;;;2.00;2.00;;;;;17.31;70.90;99551.97;4935703;29;8836;-76
2021/12/08 11:16:00;;;;;;;;;2.25;2.25;;;;;17.31;72.27;99553.72;4933582;29;8792;-76
2021/12/08 11:18:29;;;;;;;;;1.00;0.50;;;;;17.31;71.88;99551.09;4932648;29;9576;-76
2021/12/08 11:21:02;;;;;;;;;3.00;3.00;;;;;17.28;70.89;99552.00;4933275;29;8811;-76
2021/12/08 11:24:06;;;;;;;;;1.75;1.75;;;;;17.31;71.77;99557.22;4933532;29;8792;-77
2021/12/08 11:26:37;;;;;;;;;2.25;2.00;;;;;17.29;71.37;99558.16;4930709;29;8816;-76
2021/12/08 11:29:25;;;;;;;;;3.00;3.00;;;;;17.32;72.29;99572.13;4932075;29;8804;-77
2021/12/08 11:31:54;;;;;;;;;1.75;1.75;;;;;17.29;70.87;99559.03;4932149;29;8863;-77
2021/12/08 11:39:38;;;;;;;;;3.00;2.50;;;;;17.36;70.85;99575.56;5213027;23;8891;-78
2021/12/08 11:42:12;;;;;;;;;3.00;3.00;;;;;17.35;70.82;99580.00;4914539;29;8834;-76
2021/12/08 11:44:39;;;;;;;;;2.00;2.00;;;;;17.35;71.87;99587.03;4914357;29;8898;-78
2021/12/08 11:47:10;;;;;;;;;3.50;2.25;;;;;17.34;70.87;99591.44;4916023;29;8895;-78
2021/12/08 11:49:41;;;;;;;;;2.67;2.67;;;;;17.32;70.86;99582.69;4917761;29;8812;-76
2021/12/08 11:52:13;;;;;;;;;2.50;2.50;;;;;17.27;71.51;99566.13;4917779;29;8882;-76
2021/12/08 11:55:09;;;;;;;;;2.00;2.00;;;;;17.32;71.53;99577.41;4916933;29;8781;-78
2021/12/08 11:57:39;;;;;;;;;2.00;2.00;;;;;17.32;70.19;99577.41;4898544;29;9073;-78
2021/12/08 12:00:10;;;;;;;;;2.25;2.25;;;;;17.30;70.58;99568.69;4897729;29;8805;-77
2021/12/08 12:02:57;;;;;;;;;3.25;3.25;;;;;17.30;70.10;99566.03;4898777;29;8794;-78
2021/12/08 12:05:37;;;;;;;;;1.00;1.00;;;;;17.32;70.90;99564.22;4898605;29;8838;-77
2021/12/08 12:08:05;;;;;;;;;2.25;2.25;;;;;17.22;69.68;99551.31;4897747;29;8819;-78
2021/12/08 12:10:33;;;;;;;;;2.00;1.75;;;;;17.34;70.74;99575.63;4898460;29;8803;-77
2021/12/08 12:15:32;;;;;;;;;2.25;2.25;;;;;17.33;70.91;99578.28;4877293;29;9677;-78
2021/12/08 12:18:00;;;;;;;;;3.00;1.67;;;;;17.33;71.21;99588.81;4878888;29;8846;-78
2021/12/08 12:20:38;;;;;;;;;3.00;3.00;;;;;17.32;71.58;99595.03;4879478;29;8932;-78
2021/12/08 12:23:42;;;;;;;;;2.25;2.25;;;;;17.31;71.65;99594.16;4878711;29;8826;-78
2021/12/08 12:26:38;;;;;;;;;3.25;2.75;;;;;17.31;71.71;99594.16;4879912;29;8844;-78
2021/12/08 12:29:04;;;;;;;;;2.75;2.75;;;;;17.32;70.52;99595.03;4878200;29;8872;-78
2021/12/08 12:31:49;;;;;;;;;2.67;2.67;;;;;17.25;70.41;99572.31;4879863;29;8932;-78
2021/12/08 12:34:39;;;;;;;;;2.50;2.50;;;;;17.27;70.78;99579.31;4888598;23;8864;-78
2021/12/08 12:37:26;;;;;;;;;5.00;4.00;;;;;17.33;71.38;99600.25;4915278;29;8828;-78
2021/12/08 12:40:00;;;;;;;;;2.25;2.25;;;;;17.23;71.13;99588.22;4916143;29;8817;-78
2021/12/08 12:42:27;;;;;;;;;4.00;1.33;;;;;17.32;69.92;99597.69;4916095;29;8911;-78
2021/12/08 12:44:58;;;;;;;;;4.00;3.00;;;;;17.32;71.56;99613.50;4916148;29;8999;-78
2021/12/08 12:47:27;;;;;;;;;5.50;3.00;;;;;17.31;69.88;99614.41;4916739;29;8804;-78
2021/12/08 12:50:04;;;;;;;;;3.00;3.00;;;;;17.33;71.40;99617.84;4915542;29;8797;-78
2021/12/08 13:04:26;;;;;;;;;3.67;3.67;;;;;16.90;70.96;99554.78;5204608;23;8975;-76
2021/12/08 13:07:16;;;;;;;;;2.75;2.75;;;;;17.33;71.77;99631.91;4903901;29;8894;-76
2021/12/08 13:10:28;;;;;;;;;3.00;3.00;;;;;17.19;71.98;99617.34;4916434;29;8884;-76
2021/12/08 13:13:15;;;;;;;;;3.00;2.50;;;;;16.70;72.07;99534.19;4914571;29;8912;-76
2021/12/08 13:16:31;;;;;;;;;3.67;3.67;;;;;17.28;71.15;99636.44;4916216;29;8777;-76
2021/12/08 13:26:10;;;;;;;;;4.00;4.00;;;;;17.27;71.66;99647.91;4914740;29;8875;-76
2021/12/08 13:28:45;;;;;;;;;3.33;3.00;;;;;17.28;69.34;99661.97;4912620;29;8947;-76
2021/12/08 13:31:18;;;;;;;;;3.00;3.00;;;;;17.28;71.23;99659.31;4908614;29;8994;-76
2021/12/08 13:34:22;;;;;;;;;4.67;4.67;;;;;16.88;71.80;99614.56;4913309;29;8970;-76
2021/12/08 13:40:15;;;;;;;;;4.33;3.00;;;;;17.14;72.02;99658.78;4922104;23;8965;-76
2021/12/08 13:45:54;;;;;;;;;4.33;4.00;;;;;17.07;71.19;99641.38;5067669;23;8889;-77
2021/12/08 13:48:19;;;;;;;;;4.00;4.00;;;;;17.01;71.04;99658.22;4915744;29;8906;-78
2021/12/08 13:51:33;;;;;;;;;6.00;5.00;;;;;16.86;72.24;99625.16;4915398;29;9040;-77
2021/12/08 13:54:36;;;;;;;;;5.00;3.67;;;;;17.24;71.87;99698.09;4914777;29;8932;-78
2021/12/08 13:57:38;;;;;;;;;2.33;2.33;;;;;17.23;72.03;99696.38;4918922;23;9997;-78
2021/12/08 14:00:50;;;;;;;;;2.67;2.67;;;;;17.25;71.62;99699.81;4902668;23;9110;-78
2021/12/08 14:03:48;;;;;;;;;2.00;2.00;;;;;17.25;70.97;99697.19;4897021;29;8971;-78
2021/12/08 14:06:23;;;;;;;;;4.00;4.00;;;;;16.92;71.09;99653.16;4896611;29;8982;-77
2021/12/08 14:09:43;;;;;;;;;4.00;3.00;;;;;17.27;71.55;99715.63;4895861;29;9371;-77
2021/12/08 14:12:46;;;;;;;;;3.00;3.00;;;;;17.25;72.35;99707.72;4899617;29;8935;-78
2021/12/08 14:15:53;;;;;;;;;2.67;2.67;;;;;17.25;71.61;99712.13;4896147;29;8909;-77
2021/12/08 14:20:59;;;;;;;;;4.67;4.67;;;;;17.24;70.70;99713.06;4883376;23;8845;-77
2021/12/08 14:23:27;;;;;;;;;3.00;3.00;;;;;17.20;70.15;99706.13;4877206;29;8882;-77
2021/12/08 14:25:57;;;;;;;;;1.75;1.75;;;;;17.12;70.52;99695.75;4876927;29;8883;-77
2021/12/08 14:29:17;;;;;;;;;3.25;3.00;;;;;16.94;70.71;99687.41;4890255;23;8998;-77
2021/12/08 14:31:59;;;;;;;;;4.00;3.67;;;;;17.23;71.45;99741.22;4895518;29;8860;-78
2021/12/08 14:34:34;;;;;;;;;4.00;4.00;;;;;17.02;71.43;99688.09;4895600;29;8906;-77
2021/12/08 14:37:11;;;;;;;;;3.00;3.00;;;;;16.61;70.82;99617.88;4895990;29;8856;-78
2021/12/08 14:39:38;;;;;;;;;3.67;3.67;;;;;17.21;71.45;99727.16;4895730;29;8916;-77
2021/12/08 14:42:30;;;;;;;;;4.00;4.00;;;;;16.70;71.11;99657.16;4895592;29;8890;-77
2021/12/08 14:45:16;;;;;;;;;4.00;3.67;;;;;17.21;70.62;99735.06;4877609;29;9087;-77
2021/12/08 14:50:26;;;;;;;;;4.75;4.00;;;;;16.98;70.54;99715.44;4882735;23;9640;-77
2021/12/08 14:52:52;;;;;;;;;5.00;4.00;;;;;16.85;69.34;99683.19;4876885;29;8812;-77
2021/12/08 14:55:23;;;;;;;;;3.00;3.00;;;;;17.20;69.34;99750.97;4897190;23;8860;-78